createdAt,value
2017-07-26T00:01:22.664Z,5.10
2017-07-26T00:03:49.393Z,5.10
2017-07-26T00:06:16.032Z,4.15
2017-07-26T00:08:42.767Z,4.37
2017-07-26T00:11:09.422Z,3.95
2017-07-26T00:13:36.141Z,4.00
2017-07-26T00:16:02.885Z,4.62
2017-07-26T00:18:29.524Z,4.72
2017-07-26T00:20:56.164Z,4.47
2017-07-26T00:23:22.858Z,3.58
2017-07-26T00:25:49.546Z,4.28
2017-07-26T00:28:16.272Z,4.15
2017-07-26T00:30:42.939Z,5.50
2017-07-26T00:33:09.580Z,6.20
2017-07-26T00:35:36.240Z,4.40
2017-07-26T00:38:02.904Z,5.32
2017-07-26T00:40:29.590Z,5.60
2017-07-26T00:42:56.332Z,5.50
2017-07-26T00:45:23.011Z,4.62
2017-07-26T00:47:49.715Z,5.65
2017-07-26T00:50:16.361Z,5.12
2017-07-26T00:52:43.051Z,4.78
2017-07-26T00:55:09.734Z,5.35
2017-07-26T00:57:36.460Z,4.80
2017-07-26T01:00:03.142Z,6.15
2017-07-26T01:02:29.798Z,5.55
2017-07-26T01:04:56.491Z,6.30
2017-07-26T01:07:23.175Z,8.43
2017-07-26T01:09:49.830Z,6.43
2017-07-26T01:12:16.491Z,6.15
2017-07-26T01:14:43.268Z,5.55
2017-07-26T01:17:09.915Z,5.78
2017-07-26T01:19:36.631Z,5.80
2017-07-26T01:22:03.302Z,5.55
2017-07-26T01:24:29.996Z,5.53
2017-07-26T01:26:56.654Z,6.20
2017-07-26T01:29:23.338Z,7.12
2017-07-26T01:31:50.027Z,6.80
2017-07-26T01:34:16.667Z,6.85
2017-07-26T01:36:43.332Z,5.85
2017-07-26T01:39:10.032Z,5.32
2017-07-26T01:41:36.683Z,6.80
2017-07-26T01:44:03.420Z,8.02
2017-07-26T01:46:30.159Z,7.80
2017-07-26T01:48:56.918Z,6.62
2017-07-26T01:51:23.648Z,7.28
2017-07-26T01:53:50.364Z,7.85
2017-07-26T01:56:17.129Z,10.02
2017-07-26T01:58:43.864Z,10.13
2017-07-26T02:01:10.631Z,11.65
2017-07-26T02:03:37.352Z,15.00
2017-07-26T02:06:04.087Z,12.30
2017-07-26T02:08:30.750Z,12.02
2017-07-26T02:10:57.494Z,16.20
2017-07-26T02:13:24.220Z,16.33
2017-07-26T02:15:50.890Z,12.73
2017-07-26T02:18:17.554Z,14.75
2017-07-26T02:20:44.332Z,11.10
2017-07-26T02:23:10.995Z,9.38
2017-07-26T02:25:37.734Z,6.18
2017-07-26T02:28:04.763Z,6.65
2017-07-26T02:30:31.525Z,6.25
2017-07-26T02:32:58.248Z,4.95
2017-07-26T02:35:24.926Z,4.40
2017-07-26T02:37:51.583Z,3.92
2017-07-26T02:40:18.242Z,3.47
2017-07-26T02:42:45.017Z,3.47
2017-07-26T02:45:11.771Z,2.45
2017-07-26T02:47:38.426Z,2.12
2017-07-26T02:50:05.156Z,2.40
2017-07-26T02:52:31.897Z,2.20
2017-07-26T02:54:58.643Z,1.70
2017-07-26T02:57:25.626Z,1.90
2017-07-26T02:59:52.310Z,1.50
2017-07-26T03:02:18.956Z,1.98
2017-07-26T03:04:45.690Z,2.03
2017-07-26T03:07:12.340Z,1.70
2017-07-26T03:09:38.994Z,2.00
2017-07-26T03:12:05.651Z,2.00
2017-07-26T03:14:32.350Z,2.17
2017-07-26T03:16:59.012Z,1.83
2017-07-26T03:19:25.739Z,2.50
2017-07-26T03:21:52.478Z,2.62
2017-07-26T03:24:19.124Z,2.60
2017-07-26T03:26:45.859Z,2.42
2017-07-26T03:29:12.583Z,2.45
2017-07-26T03:31:39.220Z,1.92
2017-07-26T03:34:05.983Z,1.80
2017-07-26T03:36:32.632Z,1.67
2017-07-26T03:38:59.354Z,1.80
2017-07-26T03:41:26.098Z,1.75
2017-07-26T03:43:52.831Z,1.65
2017-07-26T03:46:19.580Z,1.85
2017-07-26T03:48:46.312Z,1.92
2017-07-26T03:51:13.053Z,2.22
2017-07-26T03:53:39.714Z,1.90
2017-07-26T03:56:06.436Z,2.40
2017-07-26T03:58:33.178Z,2.75
2017-07-26T04:00:59.838Z,2.30
2017-07-26T04:03:26.555Z,2.20
2017-07-26T04:05:53.200Z,2.22
2017-07-26T04:08:19.836Z,2.15
2017-07-26T04:10:46.578Z,2.80
2017-07-26T04:13:13.329Z,2.37
2017-07-26T04:15:39.987Z,1.70
2017-07-26T04:18:06.668Z,2.67
2017-07-26T04:20:33.316Z,3.33
2017-07-26T04:22:59.995Z,2.65
2017-07-26T04:25:26.674Z,2.00
2017-07-26T04:27:53.323Z,2.75
2017-07-26T04:30:19.982Z,3.15
2017-07-26T04:32:46.746Z,2.95
2017-07-26T04:35:13.392Z,9.93
2017-07-26T04:37:40.135Z,3.35
2017-07-26T04:40:06.795Z,4.60
2017-07-26T04:42:33.436Z,3.50
2017-07-26T04:45:00.132Z,4.75
2017-07-26T04:47:26.811Z,4.45
2017-07-26T04:49:53.456Z,3.87
2017-07-26T04:52:20.170Z,5.85
2017-07-26T04:54:46.906Z,5.25
2017-07-26T04:57:13.562Z,6.35
2017-07-26T04:59:40.275Z,7.93
2017-07-26T05:02:06.983Z,8.18
2017-07-26T05:04:33.675Z,8.20
2017-07-26T05:07:00.315Z,6.93
2017-07-26T05:09:27.055Z,7.53
2017-07-26T05:11:53.794Z,8.73
2017-07-26T05:14:20.519Z,8.95
2017-07-26T05:16:47.287Z,9.23
2017-07-26T05:19:14.004Z,9.27
2017-07-26T05:21:40.751Z,9.40
2017-07-26T05:24:07.415Z,9.02
2017-07-26T05:26:34.072Z,11.90
2017-07-26T05:29:00.715Z,10.95
2017-07-26T05:31:27.408Z,12.50
2017-07-26T05:33:54.068Z,11.95
2017-07-26T05:36:20.716Z,12.48
2017-07-26T05:38:47.375Z,12.15
2017-07-26T05:41:14.175Z,12.20
2017-07-26T05:43:40.838Z,11.40
2017-07-26T05:46:07.551Z,11.50
2017-07-26T05:48:34.315Z,14.02
2017-07-26T05:51:00.968Z,12.55
2017-07-26T05:53:27.632Z,11.85
2017-07-26T05:55:54.281Z,11.50
2017-07-26T05:58:20.929Z,11.68
2017-07-26T06:00:47.606Z,12.02
2017-07-26T06:03:14.327Z,11.63
2017-07-26T06:05:41.828Z,10.70
2017-07-26T06:08:08.510Z,11.48
2017-07-26T06:10:35.380Z,12.25
2017-07-26T06:13:02.024Z,11.20
2017-07-26T06:15:28.687Z,10.20
2017-07-26T06:17:55.333Z,11.68
2017-07-26T06:20:21.984Z,11.77
2017-07-26T06:22:48.692Z,10.90
2017-07-26T06:25:15.350Z,13.30
2017-07-26T06:27:42.085Z,11.80
2017-07-26T06:30:08.791Z,13.85
2017-07-26T06:32:35.437Z,12.48
2017-07-26T06:35:02.107Z,13.10
2017-07-26T06:37:28.792Z,14.48
2017-07-26T06:39:55.557Z,13.88
2017-07-26T06:42:22.405Z,15.50
2017-07-26T06:44:49.086Z,16.12
2017-07-26T06:47:15.765Z,15.13
2017-07-26T06:49:42.440Z,18.98
2017-07-26T06:52:09.159Z,14.80
2017-07-26T06:54:35.895Z,15.38
2017-07-26T06:57:02.663Z,15.93
2017-07-26T06:59:29.399Z,14.40
2017-07-26T07:01:56.138Z,14.70
2017-07-26T07:04:22.803Z,16.75
2017-07-26T07:06:49.534Z,14.60
2017-07-26T07:09:16.198Z,14.93
2017-07-26T07:11:42.899Z,16.23
2017-07-26T07:14:09.623Z,12.00
2017-07-26T07:16:36.389Z,17.70
2017-07-26T07:19:03.063Z,15.95
2017-07-26T07:21:29.765Z,16.50
2017-07-26T07:23:56.434Z,14.85
2017-07-26T07:26:23.097Z,14.25
2017-07-26T07:28:49.816Z,15.55
2017-07-26T07:31:16.470Z,13.02
2017-07-26T07:33:43.148Z,12.85
2017-07-26T07:36:09.821Z,11.73
2017-07-26T07:38:36.543Z,12.27
2017-07-26T07:41:03.192Z,13.35
2017-07-26T07:43:29.864Z,11.15
2017-07-26T07:45:56.563Z,11.50
2017-07-26T07:48:23.302Z,10.50
2017-07-26T07:50:50.047Z,11.50
2017-07-26T07:53:16.786Z,11.75
2017-07-26T07:55:43.458Z,12.90
2017-07-26T07:58:10.174Z,11.73
2017-07-26T08:00:36.904Z,12.50
2017-07-26T08:03:03.618Z,12.70
2017-07-26T08:05:30.395Z,12.15
2017-07-26T08:07:57.135Z,11.85
2017-07-26T08:10:23.865Z,10.45
2017-07-26T08:12:50.600Z,12.48
2017-07-26T08:15:17.251Z,11.27
2017-07-26T08:17:43.998Z,13.80
2017-07-26T08:20:10.746Z,15.05
2017-07-26T08:22:37.396Z,12.95
2017-07-26T08:25:04.104Z,12.13
2017-07-26T08:27:30.862Z,11.70
2017-07-26T08:29:57.519Z,13.88
2017-07-26T08:32:24.243Z,13.45
2017-07-26T08:34:50.968Z,12.45
2017-07-26T08:37:17.627Z,12.80
2017-07-26T08:39:44.369Z,12.98
2017-07-26T08:42:11.058Z,13.07
2017-07-26T08:44:37.732Z,13.75
2017-07-26T08:47:04.474Z,11.40
2017-07-26T08:49:31.139Z,12.37
2017-07-26T08:51:57.803Z,12.45
2017-07-26T08:54:24.505Z,12.18
2017-07-26T08:56:51.172Z,11.48
2017-07-26T08:59:17.887Z,11.93
2017-07-26T09:01:44.544Z,14.40
2017-07-26T09:04:11.213Z,12.00
2017-07-26T09:06:37.894Z,10.40
2017-07-26T09:09:04.650Z,11.65
2017-07-26T09:11:31.406Z,12.00
2017-07-26T09:13:58.135Z,10.63
2017-07-26T09:16:24.783Z,10.35
2017-07-26T09:18:51.466Z,11.52
2017-07-26T09:21:18.113Z,9.98
2017-07-26T09:23:44.772Z,10.40
2017-07-26T09:26:11.450Z,8.80
2017-07-26T09:28:38.167Z,9.90
2017-07-26T09:31:04.830Z,9.85
2017-07-26T09:33:31.542Z,9.40
2017-07-26T09:35:58.281Z,8.77
2017-07-26T09:38:25.034Z,7.85
2017-07-26T09:40:51.726Z,8.65
2017-07-26T09:43:18.372Z,7.87
2017-07-26T09:45:45.031Z,7.00
2017-07-26T09:48:11.890Z,7.37
2017-07-26T09:50:38.531Z,7.80
2017-07-26T09:53:05.176Z,8.82
2017-07-26T09:55:31.855Z,7.40
2017-07-26T09:57:58.545Z,6.97
2017-07-26T10:00:25.186Z,8.30
2017-07-26T10:02:51.869Z,7.30
2017-07-26T10:05:18.574Z,6.40
2017-07-26T10:07:45.310Z,5.90
2017-07-26T10:10:11.995Z,5.68
2017-07-26T10:12:38.645Z,6.70
2017-07-26T10:15:05.338Z,6.70
2017-07-26T10:17:32.000Z,7.53
2017-07-26T10:19:58.705Z,5.72
2017-07-26T10:22:25.363Z,6.60
2017-07-26T10:24:52.080Z,5.03
2017-07-26T10:27:18.802Z,5.97
2017-07-26T10:29:45.462Z,5.97
2017-07-26T10:32:12.221Z,5.40
2017-07-26T10:34:38.864Z,5.53
2017-07-26T10:37:05.508Z,5.60
2017-07-26T10:39:32.227Z,5.07
2017-07-26T10:41:59.076Z,4.93
2017-07-26T10:44:25.831Z,6.75
2017-07-26T10:46:52.510Z,4.85
2017-07-26T10:49:19.164Z,4.20
2017-07-26T10:51:45.804Z,4.28
2017-07-26T10:54:12.563Z,4.95
2017-07-26T10:56:39.331Z,5.30
2017-07-26T10:59:06.072Z,6.00
2017-07-26T11:01:32.798Z,7.18
2017-07-26T11:03:59.536Z,5.93
2017-07-26T11:06:26.179Z,5.80
2017-07-26T11:08:52.938Z,6.40
2017-07-26T11:11:19.666Z,7.03
2017-07-26T11:13:46.418Z,5.40
2017-07-26T11:16:13.159Z,7.00
2017-07-26T11:18:39.993Z,5.45
2017-07-26T11:21:06.742Z,6.53
2017-07-26T11:23:33.466Z,6.32
2017-07-26T11:26:00.186Z,6.28
2017-07-26T11:28:26.848Z,5.45
2017-07-26T11:30:53.508Z,6.45
2017-07-26T11:33:20.247Z,5.07
2017-07-26T11:35:46.916Z,5.05
2017-07-26T11:38:13.626Z,5.37
2017-07-26T11:40:40.283Z,5.80
2017-07-26T11:43:06.943Z,6.25
2017-07-26T11:45:33.648Z,6.05
2017-07-26T11:48:00.296Z,5.25
2017-07-26T11:50:26.948Z,5.30
2017-07-26T11:52:53.623Z,6.10
2017-07-26T11:55:20.286Z,7.20
2017-07-26T11:57:46.947Z,6.87
2017-07-26T12:00:13.623Z,6.20
2017-07-26T12:02:40.327Z,7.72
2017-07-26T12:05:06.981Z,8.02
2017-07-26T12:07:33.707Z,8.25
2017-07-26T12:10:00.451Z,8.70
2017-07-26T12:12:27.111Z,8.70
2017-07-26T12:14:53.819Z,7.10
2017-07-26T12:17:20.645Z,5.40
2017-07-26T12:19:47.300Z,3.60
2017-07-26T12:22:15.068Z,3.30
2017-07-26T12:24:41.786Z,3.95
2017-07-26T12:27:08.559Z,3.17
2017-07-26T12:29:35.286Z,2.30
2017-07-26T12:32:02.023Z,2.40
2017-07-26T12:34:29.396Z,2.22
2017-07-26T12:36:57.974Z,2.30
2017-07-26T12:39:26.546Z,2.00
2017-07-26T12:41:53.709Z,1.83
2017-07-26T12:44:21.067Z,1.90
2017-07-26T12:46:47.805Z,2.30
2017-07-26T12:49:14.753Z,2.12
2017-07-26T12:51:41.606Z,2.67
2017-07-26T12:54:09.056Z,3.22
2017-07-26T12:56:36.616Z,3.33
2017-07-26T12:59:04.152Z,3.90
2017-07-26T13:01:30.861Z,2.90
2017-07-26T13:03:57.761Z,2.90
2017-07-26T13:06:24.435Z,3.40
2017-07-26T13:08:51.095Z,3.70
2017-07-26T13:11:18.868Z,4.28
2017-07-26T13:13:45.529Z,4.10
2017-07-26T13:16:12.465Z,4.30
2017-07-26T13:18:39.467Z,3.50
2017-07-26T13:21:06.133Z,5.47
2017-07-26T13:23:32.827Z,5.03
2017-07-26T13:25:59.487Z,4.03
2017-07-26T13:28:26.207Z,3.45
2017-07-26T13:30:52.951Z,3.45
2017-07-26T13:33:19.592Z,2.70
2017-07-26T13:35:46.312Z,3.22
2017-07-26T13:38:12.963Z,3.95
2017-07-26T13:40:39.603Z,3.00
2017-07-26T13:43:06.279Z,3.70
2017-07-26T13:45:32.980Z,3.78
2017-07-26T13:47:59.639Z,4.35
2017-07-26T13:50:26.351Z,4.18
2017-07-26T13:52:52.994Z,3.85
2017-07-26T13:55:19.637Z,4.00
2017-07-26T13:57:46.295Z,3.40
2017-07-26T14:00:13.020Z,3.58
2017-07-26T14:02:39.659Z,3.47
2017-07-26T14:05:06.403Z,3.45
2017-07-26T14:07:33.146Z,3.95
2017-07-26T14:09:59.814Z,4.12
2017-07-26T14:12:26.512Z,4.45
2017-07-26T14:14:53.272Z,5.10
2017-07-26T14:17:19.996Z,4.78
2017-07-26T14:19:46.690Z,5.82
2017-07-26T14:22:13.349Z,5.50
2017-07-26T14:24:39.991Z,4.65
2017-07-26T14:27:06.647Z,5.95
2017-07-26T14:29:33.307Z,6.22
2017-07-26T14:31:59.956Z,5.50
2017-07-26T14:34:26.672Z,5.72
2017-07-26T14:36:53.327Z,6.68
2017-07-26T14:39:20.070Z,5.35
2017-07-26T14:41:46.803Z,5.10
2017-07-26T14:44:13.458Z,4.45
2017-07-26T14:46:40.107Z,4.40
2017-07-26T14:49:06.824Z,4.60
2017-07-26T14:51:33.469Z,4.70
2017-07-26T14:54:00.113Z,4.47
2017-07-26T14:56:26.791Z,5.57
2017-07-26T14:58:53.489Z,5.37
2017-07-26T15:01:20.218Z,4.43
2017-07-26T15:03:46.956Z,4.12
2017-07-26T15:06:13.602Z,4.05
2017-07-26T15:08:40.346Z,5.37
2017-07-26T15:11:07.003Z,4.62
2017-07-26T15:13:33.734Z,4.12
2017-07-26T15:16:00.453Z,4.35
2017-07-26T15:18:27.136Z,4.60
2017-07-26T15:20:53.854Z,4.70
2017-07-26T15:23:20.595Z,4.35
2017-07-26T15:25:47.326Z,5.20
2017-07-26T15:28:14.072Z,3.42
2017-07-26T15:30:40.734Z,4.28
2017-07-26T15:33:07.444Z,5.60
2017-07-26T15:35:34.190Z,4.95
2017-07-26T15:38:00.836Z,6.87
2017-07-26T15:40:27.511Z,6.70
2017-07-26T15:42:54.156Z,4.15
2017-07-26T15:45:20.866Z,6.43
2017-07-26T15:47:47.607Z,5.93
2017-07-26T15:50:14.319Z,6.43
2017-07-26T15:52:40.968Z,6.20
2017-07-26T15:55:07.647Z,8.57
2017-07-26T15:57:34.293Z,9.02
2017-07-26T16:00:00.981Z,7.60
2017-07-26T16:02:27.660Z,6.25
2017-07-26T16:04:54.389Z,8.68
2017-07-26T16:07:21.052Z,8.70
2017-07-26T16:09:47.767Z,7.60
2017-07-26T16:12:14.419Z,8.18
2017-07-26T16:14:41.060Z,7.32
2017-07-26T16:17:07.786Z,7.90
2017-07-26T16:19:34.436Z,8.90
2017-07-26T16:22:01.106Z,10.88
2017-07-26T16:24:27.791Z,10.52
2017-07-26T16:26:54.441Z,9.88
2017-07-26T16:29:21.109Z,10.98
2017-07-26T16:31:47.777Z,8.75
2017-07-26T16:34:14.438Z,6.57
2017-07-26T16:36:41.102Z,8.90
2017-07-26T16:39:07.776Z,8.68
2017-07-26T16:41:34.424Z,10.02
2017-07-26T16:44:01.086Z,9.65
2017-07-26T16:46:27.756Z,11.50
2017-07-26T16:48:54.418Z,10.05
2017-07-26T16:51:21.142Z,11.90
2017-07-26T16:53:47.796Z,7.12
2017-07-26T16:56:17.162Z,6.78
2017-07-26T16:58:48.656Z,8.13
2017-07-26T17:01:15.407Z,9.23
2017-07-26T17:03:42.064Z,9.60
2017-07-26T17:06:08.747Z,9.73
2017-07-26T17:08:35.496Z,9.77
2017-07-26T17:11:02.149Z,8.73
2017-07-26T17:13:28.876Z,7.10
2017-07-26T17:15:55.623Z,8.15
2017-07-26T17:18:22.975Z,9.02
2017-07-26T17:20:49.679Z,8.50
2017-07-26T17:23:16.450Z,7.05
2017-07-26T17:25:43.202Z,7.90
2017-07-26T17:28:09.862Z,6.65
2017-07-26T17:30:36.528Z,7.40
2017-07-26T17:33:03.191Z,9.50
2017-07-26T17:35:29.851Z,8.02
2017-07-26T17:37:56.530Z,9.38
2017-07-26T17:40:23.179Z,7.50
2017-07-26T17:42:49.864Z,7.82
2017-07-26T17:45:16.528Z,6.43
2017-07-26T17:47:43.233Z,6.72
2017-07-26T17:50:09.990Z,9.35
2017-07-26T17:52:36.726Z,7.97
2017-07-26T17:55:03.376Z,9.63
2017-07-26T17:57:30.122Z,12.85
2017-07-26T17:59:56.800Z,12.98
2017-07-26T18:02:23.471Z,10.95
2017-07-26T18:04:50.139Z,11.73
2017-07-26T18:07:16.886Z,12.23
2017-07-26T18:09:43.609Z,11.90
2017-07-26T18:12:10.260Z,12.32
2017-07-26T18:14:36.939Z,14.65
2017-07-26T18:17:03.643Z,11.05
2017-07-26T18:19:30.295Z,12.75
2017-07-26T18:21:56.983Z,12.93
2017-07-26T18:24:23.655Z,11.73
2017-07-26T18:26:50.385Z,12.90
2017-07-26T18:29:17.072Z,12.98
2017-07-26T18:31:43.774Z,13.20
2017-07-26T18:34:10.515Z,14.27
2017-07-26T18:36:37.180Z,11.90
2017-07-26T18:39:03.832Z,15.23
2017-07-26T18:41:30.503Z,13.57
2017-07-26T18:43:57.174Z,11.68
2017-07-26T18:46:23.820Z,13.73
2017-07-26T18:48:50.473Z,11.95
2017-07-26T18:51:17.183Z,13.25
2017-07-26T18:53:43.836Z,14.98
2017-07-26T18:56:10.489Z,11.68
2017-07-26T18:58:37.223Z,15.20
2017-07-26T19:01:03.892Z,12.98
2017-07-26T19:03:30.584Z,11.65
2017-07-26T19:05:57.253Z,13.15
2017-07-26T19:08:23.926Z,12.30
2017-07-26T19:10:50.622Z,12.98
2017-07-26T19:13:17.310Z,14.15
2017-07-26T19:15:43.993Z,14.60
2017-07-26T19:18:10.686Z,22.52
2017-07-26T19:20:37.358Z,14.02
2017-07-26T19:23:04.117Z,16.40
2017-07-26T19:25:30.796Z,15.25
2017-07-26T19:27:57.464Z,14.65
2017-07-26T19:30:24.118Z,16.45
2017-07-26T19:32:50.774Z,13.55
2017-07-26T19:35:17.459Z,14.15
2017-07-26T19:37:44.166Z,17.05
2017-07-26T19:40:10.832Z,14.45
2017-07-26T19:42:37.512Z,13.35
2017-07-26T19:45:04.175Z,12.02
2017-07-26T19:47:30.829Z,12.52
2017-07-26T19:49:57.510Z,13.13
2017-07-26T19:52:24.206Z,10.20
2017-07-26T19:54:50.943Z,10.93
2017-07-26T19:57:17.611Z,11.82
2017-07-26T19:59:44.326Z,15.48
2017-07-26T20:02:11.002Z,13.82
2017-07-26T20:04:37.698Z,16.30
2017-07-26T20:07:04.459Z,15.75
2017-07-26T20:09:31.116Z,21.50
2017-07-26T20:11:57.794Z,22.98
2017-07-26T20:14:24.561Z,21.62
2017-07-26T20:16:51.208Z,28.80
2017-07-26T20:19:17.958Z,29.92
2017-07-26T20:21:44.678Z,22.45
2017-07-26T20:24:11.435Z,17.65
2017-07-26T20:26:38.129Z,17.50
2017-07-26T20:29:04.779Z,20.80
2017-07-26T20:31:31.442Z,27.90
2017-07-26T20:33:58.194Z,23.60
2017-07-26T20:36:24.852Z,26.15
2017-07-26T20:38:51.518Z,29.70
2017-07-26T20:41:18.361Z,34.15
2017-07-26T20:43:45.045Z,33.10
2017-07-26T20:46:11.710Z,28.15
2017-07-26T20:48:38.532Z,23.60
2017-07-26T20:51:05.207Z,22.30
2017-07-26T20:53:31.876Z,18.45
2017-07-26T20:55:58.547Z,16.50
2017-07-26T20:58:25.202Z,15.65
2017-07-26T21:00:51.853Z,15.45
2017-07-26T21:03:18.519Z,13.30
2017-07-26T21:05:45.219Z,14.63
2017-07-26T21:08:11.872Z,16.67
2017-07-26T21:10:38.555Z,15.38
2017-07-26T21:13:05.222Z,15.60
2017-07-26T21:15:31.970Z,15.50
2017-07-26T21:17:58.638Z,14.90
2017-07-26T21:20:25.302Z,16.05
2017-07-26T21:22:51.979Z,17.25
2017-07-26T21:25:18.665Z,18.33
2017-07-26T21:27:45.369Z,16.50
2017-07-26T21:30:12.075Z,22.00
2017-07-26T21:32:38.763Z,22.27
2017-07-26T21:35:05.431Z,22.27
2017-07-26T21:37:32.097Z,24.08
2017-07-26T21:39:58.895Z,20.12
2017-07-26T21:42:25.551Z,24.17
2017-07-26T21:44:52.214Z,24.27
2017-07-26T21:47:18.889Z,21.33
2017-07-26T21:49:45.558Z,26.67
2017-07-26T21:52:12.273Z,20.55
2017-07-26T21:54:38.953Z,20.12
2017-07-26T21:57:05.626Z,19.87
2017-07-26T21:59:38.389Z,23.52
2017-07-26T22:02:05.133Z,21.37
2017-07-26T22:04:31.866Z,19.12
2017-07-26T22:06:58.599Z,17.62
2017-07-26T22:09:25.317Z,17.12
2017-07-26T22:11:52.028Z,17.70
2017-07-26T22:14:18.855Z,18.85
2017-07-26T22:16:45.593Z,19.35
2017-07-26T22:19:12.307Z,20.23
2017-07-26T22:21:39.184Z,17.73
2017-07-26T22:24:06.018Z,19.48
2017-07-26T22:26:32.729Z,18.87
2017-07-26T22:28:59.497Z,18.33
2017-07-26T22:31:26.234Z,19.55
2017-07-26T22:33:52.977Z,18.65
2017-07-26T22:36:19.811Z,20.90
2017-07-26T22:38:46.564Z,23.90
2017-07-26T22:41:13.301Z,22.52
2017-07-26T22:43:40.044Z,22.33
2017-07-26T22:46:06.757Z,24.52
2017-07-26T22:48:33.511Z,24.58
2017-07-26T22:51:00.262Z,21.55
2017-07-26T22:53:27.009Z,18.50
2017-07-26T22:55:53.725Z,21.20
2017-07-26T22:58:20.473Z,23.77
2017-07-26T23:00:47.186Z,23.25
2017-07-26T23:03:13.904Z,22.90
2017-07-26T23:05:40.671Z,22.02
2017-07-26T23:08:07.385Z,26.95
2017-07-26T23:10:34.101Z,26.20
2017-07-26T23:13:00.826Z,25.92
2017-07-26T23:15:27.527Z,25.48
2017-07-26T23:17:54.255Z,26.05
2017-07-26T23:20:20.999Z,30.85
2017-07-26T23:22:47.825Z,33.72
2017-07-26T23:25:14.668Z,37.70
2017-07-26T23:27:41.407Z,33.65
2017-07-26T23:30:08.237Z,31.20
2017-07-26T23:32:34.996Z,39.25
2017-07-26T23:35:01.839Z,30.42
2017-07-26T23:37:28.568Z,29.40
2017-07-26T23:39:55.301Z,28.90
2017-07-26T23:42:22.168Z,32.15
2017-07-26T23:44:48.975Z,29.45
2017-07-26T23:47:15.674Z,33.55
2017-07-26T23:49:42.473Z,31.83
2017-07-26T23:52:09.269Z,34.47
2017-07-26T23:54:35.967Z,30.77
2017-07-26T23:57:02.782Z,29.33
2017-07-26T23:59:29.780Z,28.65
